createdAt,value
2022-11-27T00:01:12.061Z,21.50
2022-11-27T00:02:39.195Z,36.00
2022-11-27T00:04:03.337Z,25.23
2022-11-27T00:05:25.515Z,28.90
2022-11-27T00:06:47.562Z,28.97
2022-11-27T00:08:09.604Z,25.83
2022-11-27T00:09:33.381Z,21.57
2022-11-27T00:10:55.448Z,30.70
2022-11-27T00:12:17.509Z,27.13
2022-11-27T00:13:40.126Z,30.47
2022-11-27T00:15:03.557Z,24.27
2022-11-27T00:16:26.658Z,26.97
2022-11-27T00:17:48.679Z,24.00
2022-11-27T00:19:11.505Z,28.50
2022-11-27T00:20:33.588Z,31.03
2022-11-27T00:21:55.694Z,25.13
2022-11-27T00:23:17.899Z,27.17
2022-11-27T00:24:40.261Z,24.73
2022-11-27T00:26:03.423Z,25.40
2022-11-27T00:27:26.107Z,23.63
2022-11-27T00:28:48.580Z,27.77
2022-11-27T00:30:11.030Z,26.00
2022-11-27T00:31:35.136Z,22.30
2022-11-27T00:32:57.239Z,45.23
2022-11-27T00:34:19.277Z,20.53
2022-11-27T00:35:41.589Z,20.30
2022-11-27T00:37:03.668Z,20.37
2022-11-27T00:38:25.752Z,30.17
2022-11-27T00:39:48.122Z,26.70
2022-11-27T00:41:14.224Z,24.00
2022-11-27T00:42:36.269Z,25.23
2022-11-27T00:43:58.788Z,24.37
2022-11-27T00:45:20.881Z,24.70
2022-11-27T00:46:43.023Z,25.60
2022-11-27T00:48:05.429Z,22.13
2022-11-27T00:49:27.569Z,21.13
2022-11-27T00:50:49.665Z,19.30
2022-11-27T00:52:11.734Z,19.77
2022-11-27T00:53:34.323Z,21.40
2022-11-27T00:54:56.345Z,20.80
2022-11-27T00:56:24.389Z,19.93
2022-11-27T00:57:46.519Z,28.03
2022-11-27T00:59:09.817Z,21.87
2022-11-27T01:00:32.020Z,22.93
2022-11-27T01:01:54.155Z,23.23
2022-11-27T01:03:16.296Z,27.20
2022-11-27T01:04:38.658Z,21.90
2022-11-27T01:06:05.528Z,20.47
2022-11-27T01:07:27.710Z,28.60
2022-11-27T01:08:50.527Z,19.53
2022-11-27T01:10:12.970Z,24.27
2022-11-27T01:11:35.658Z,19.07
2022-11-27T01:12:57.711Z,21.03
2022-11-27T01:14:19.755Z,23.20
2022-11-27T01:15:41.886Z,23.63
2022-11-27T01:17:04.003Z,20.07
2022-11-27T01:18:26.198Z,21.23
2022-11-27T01:19:48.326Z,23.40
2022-11-27T01:21:12.158Z,23.53
2022-11-27T01:22:34.415Z,25.60
2022-11-27T01:23:56.517Z,24.90
2022-11-27T01:25:20.102Z,24.63
2022-11-27T01:26:45.614Z,22.30
2022-11-27T01:28:07.705Z,19.57
2022-11-27T01:29:29.956Z,27.47
2022-11-27T01:30:52.280Z,18.87
2022-11-27T01:32:14.490Z,25.40
2022-11-27T01:33:36.609Z,20.47
2022-11-27T01:34:58.667Z,25.53
2022-11-27T01:36:20.934Z,31.63
2022-11-27T01:37:43.008Z,19.70
2022-11-27T01:39:05.349Z,28.50
2022-11-27T01:40:27.430Z,24.97
2022-11-27T01:41:49.641Z,24.33
2022-11-27T01:43:15.691Z,29.93
2022-11-27T01:44:38.209Z,18.40
2022-11-27T01:46:00.786Z,17.57
2022-11-27T01:47:32.625Z,23.23
2022-11-27T01:49:19.751Z,19.77
2022-11-27T01:50:42.190Z,25.23
2022-11-27T01:52:07.354Z,23.50
2022-11-27T01:53:29.606Z,22.43
2022-11-27T01:55:01.230Z,20.90
2022-11-27T01:56:24.414Z,19.07
2022-11-27T01:57:51.294Z,22.13
2022-11-27T01:59:13.928Z,20.13
2022-11-27T02:00:37.017Z,29.93
2022-11-27T02:02:00.281Z,29.00
2022-11-27T02:03:23.050Z,25.83
2022-11-27T02:04:45.224Z,23.40
2022-11-27T02:06:07.589Z,36.80
2022-11-27T02:07:29.728Z,28.00
2022-11-27T02:08:52.516Z,27.77
2022-11-27T02:10:15.915Z,30.40
2022-11-27T02:11:42.884Z,32.67
2022-11-27T02:13:11.833Z,35.43
2022-11-27T02:14:55.000Z,26.30
2022-11-27T02:16:18.309Z,21.93
2022-11-27T02:17:44.921Z,23.63
2022-11-27T02:20:03.339Z,27.83
2022-11-27T02:21:42.058Z,26.63
2022-11-27T02:23:07.196Z,22.20
2022-11-27T02:24:56.323Z,18.80
2022-11-27T02:26:27.575Z,18.60
2022-11-27T02:28:16.702Z,23.23
2022-11-27T02:29:40.828Z,28.13
2022-11-27T02:31:30.558Z,21.40
2022-11-27T02:33:00.001Z,23.63
2022-11-27T02:34:31.985Z,23.60
2022-11-27T02:36:00.580Z,24.10
2022-11-27T02:38:13.876Z,27.47
2022-11-27T02:39:58.049Z,27.80
2022-11-27T02:41:29.298Z,26.43
2022-11-27T02:43:00.357Z,27.53
2022-11-27T02:44:23.729Z,22.70
2022-11-27T02:45:49.266Z,23.57
2022-11-27T02:47:12.943Z,19.87
2022-11-27T02:48:47.362Z,22.37
2022-11-27T02:50:14.451Z,28.43
2022-11-27T02:51:44.689Z,20.73
2022-11-27T02:53:12.303Z,22.57
2022-11-27T02:54:35.072Z,22.50
2022-11-27T02:55:58.536Z,18.47
2022-11-27T02:57:22.195Z,17.77
2022-11-27T02:58:47.291Z,20.67
2022-11-27T03:00:10.493Z,21.10
2022-11-27T03:01:38.697Z,20.73
2022-11-27T03:03:06.730Z,22.23
2022-11-27T03:04:34.535Z,19.00
2022-11-27T03:06:02.054Z,18.33
2022-11-27T03:07:40.565Z,25.63
2022-11-27T03:09:14.900Z,18.77
2022-11-27T03:10:46.336Z,15.00
2022-11-27T03:12:11.079Z,16.13
2022-11-27T03:13:38.049Z,16.07
2022-11-27T03:15:00.221Z,16.17
2022-11-27T03:16:22.254Z,20.17
2022-11-27T03:18:01.664Z,19.53
2022-11-27T03:19:30.730Z,21.33
2022-11-27T03:21:04.163Z,20.87
2022-11-27T03:22:27.905Z,22.43
2022-11-27T03:23:50.047Z,15.63
2022-11-27T03:25:12.214Z,18.07
2022-11-27T03:26:34.675Z,16.83
2022-11-27T03:28:01.102Z,20.63
2022-11-27T03:29:46.121Z,20.27
2022-11-27T03:31:08.350Z,18.83
2022-11-27T03:32:32.239Z,27.17
2022-11-27T03:33:54.813Z,26.30
2022-11-27T03:35:21.839Z,25.13
2022-11-27T03:36:45.320Z,24.13
2022-11-27T03:38:07.445Z,20.27
2022-11-27T03:39:30.823Z,32.97
2022-11-27T03:41:06.905Z,28.00
2022-11-27T03:42:34.585Z,20.87
2022-11-27T03:44:10.306Z,29.80
2022-11-27T03:45:47.181Z,23.43
2022-11-27T03:47:24.287Z,17.50
2022-11-27T03:48:59.142Z,26.87
2022-11-27T03:50:56.492Z,28.80
2022-11-27T03:52:18.529Z,30.80
2022-11-27T03:53:53.272Z,35.67
2022-11-27T03:55:30.072Z,31.70
2022-11-27T03:57:02.043Z,30.10
2022-11-27T03:58:48.747Z,23.13
2022-11-27T04:00:11.979Z,31.67
2022-11-27T04:01:34.325Z,38.73
2022-11-27T04:02:56.426Z,31.60
2022-11-27T04:04:18.554Z,25.90
2022-11-27T04:05:40.959Z,31.77
2022-11-27T04:07:03.034Z,34.73
2022-11-27T04:08:25.310Z,34.87
2022-11-27T04:09:47.350Z,20.30
2022-11-27T04:11:09.456Z,34.43
2022-11-27T04:12:31.496Z,29.73
2022-11-27T04:13:53.544Z,25.63
2022-11-27T04:15:15.642Z,32.37
2022-11-27T04:16:37.766Z,33.63
2022-11-27T04:17:59.859Z,33.47
2022-11-27T04:19:21.886Z,29.83
2022-11-27T04:20:44.231Z,33.00
2022-11-27T04:22:06.274Z,38.60
2022-11-27T04:23:28.302Z,36.43
2022-11-27T04:24:51.184Z,29.40
2022-11-27T04:26:13.221Z,22.30
2022-11-27T04:27:35.249Z,25.90
2022-11-27T04:28:57.317Z,33.13
2022-11-27T04:30:19.648Z,30.50
2022-11-27T04:31:54.876Z,30.80
2022-11-27T04:33:16.991Z,30.77
2022-11-27T04:34:39.252Z,31.77
2022-11-27T04:36:01.501Z,30.80
2022-11-27T04:37:23.559Z,29.50
2022-11-27T04:38:45.682Z,29.37
2022-11-27T04:40:08.393Z,24.40
2022-11-27T04:41:30.669Z,27.73
2022-11-27T04:42:53.588Z,26.90
2022-11-27T04:44:15.751Z,31.60
2022-11-27T04:45:38.180Z,29.43
2022-11-27T04:47:00.359Z,30.97
2022-11-27T04:48:22.531Z,36.13
2022-11-27T04:49:44.734Z,41.23
2022-11-27T04:51:06.795Z,30.00
2022-11-27T04:52:28.960Z,41.17
2022-11-27T04:53:51.040Z,34.97
2022-11-27T04:55:13.075Z,38.17
2022-11-27T04:56:35.149Z,34.97
2022-11-27T04:57:57.184Z,28.80
2022-11-27T04:59:19.406Z,26.40
2022-11-27T05:00:41.488Z,29.43
2022-11-27T05:02:03.691Z,31.27
2022-11-27T05:03:25.801Z,37.60
2022-11-27T05:04:47.825Z,40.57
2022-11-27T05:06:09.854Z,41.10
2022-11-27T05:07:31.976Z,26.20
2022-11-27T05:08:59.944Z,32.83
2022-11-27T05:10:21.988Z,25.03
2022-11-27T05:11:44.858Z,25.73
2022-11-27T05:13:06.979Z,26.53
2022-11-27T05:14:29.334Z,24.63
2022-11-27T05:15:51.429Z,31.37
2022-11-27T05:17:14.164Z,26.27
2022-11-27T05:18:36.546Z,30.83
2022-11-27T05:19:58.578Z,28.57
2022-11-27T05:21:20.607Z,40.37
2022-11-27T05:22:44.138Z,28.47
2022-11-27T05:24:06.720Z,33.80
2022-11-27T05:25:28.729Z,30.63
2022-11-27T05:26:51.113Z,29.40
2022-11-27T05:28:13.240Z,28.40
2022-11-27T05:29:35.266Z,40.87
2022-11-27T05:30:57.568Z,27.33
2022-11-27T05:32:19.663Z,23.90
2022-11-27T05:33:41.703Z,27.87
2022-11-27T05:35:03.895Z,28.33
2022-11-27T05:36:26.032Z,28.73
2022-11-27T05:37:48.100Z,31.10
2022-11-27T05:39:11.191Z,31.10
2022-11-27T05:40:33.217Z,27.30
2022-11-27T05:41:55.247Z,35.90
2022-11-27T05:43:17.323Z,36.43
2022-11-27T05:44:39.715Z,28.53
2022-11-27T05:46:10.395Z,35.10
2022-11-27T05:47:32.434Z,35.43
2022-11-27T05:48:54.607Z,27.50
2022-11-27T05:50:16.742Z,34.07
2022-11-27T05:51:38.923Z,30.10
2022-11-27T05:53:00.945Z,41.10
2022-11-27T05:54:23.013Z,27.87
2022-11-27T05:55:45.121Z,35.17
2022-11-27T05:57:07.200Z,33.93
2022-11-27T05:58:29.247Z,30.37
2022-11-27T05:59:51.410Z,30.73
2022-11-27T06:01:15.033Z,33.67
2022-11-27T06:02:37.211Z,45.20
2022-11-27T06:04:00.562Z,32.00
2022-11-27T06:05:22.653Z,30.63
2022-11-27T06:06:44.687Z,31.53
2022-11-27T06:08:06.851Z,36.50
2022-11-27T06:09:28.973Z,42.67
2022-11-27T06:10:51.048Z,40.47
2022-11-27T06:12:13.035Z,38.20
2022-11-27T06:13:35.789Z,37.43
2022-11-27T06:14:57.778Z,45.37
2022-11-27T06:16:22.338Z,35.90
2022-11-27T06:17:44.427Z,38.23
2022-11-27T06:19:07.372Z,43.47
2022-11-27T06:20:29.744Z,35.30
2022-11-27T06:21:51.816Z,37.23
2022-11-27T06:23:13.866Z,33.77
2022-11-27T06:24:35.933Z,36.23
2022-11-27T06:25:57.962Z,35.30
2022-11-27T06:27:20.118Z,39.00
2022-11-27T06:28:42.558Z,33.37
2022-11-27T06:30:05.288Z,35.07
2022-11-27T06:31:30.866Z,36.57
2022-11-27T06:32:53.132Z,35.80
2022-11-27T06:34:15.222Z,37.43
2022-11-27T06:35:37.289Z,36.17
2022-11-27T06:36:59.963Z,62.73
2022-11-27T06:38:23.053Z,42.33
2022-11-27T06:39:45.076Z,34.93
2022-11-27T06:41:13.251Z,38.50
2022-11-27T06:42:35.327Z,42.07
2022-11-27T06:43:59.257Z,37.97
2022-11-27T06:45:21.486Z,42.80
2022-11-27T06:46:43.708Z,46.43
2022-11-27T06:48:05.838Z,45.73
2022-11-27T06:49:27.940Z,40.47
2022-11-27T06:50:50.022Z,40.63
2022-11-27T06:52:12.051Z,33.53
2022-11-27T06:53:36.416Z,36.13
2022-11-27T06:54:58.514Z,51.37
2022-11-27T06:56:23.884Z,45.60
2022-11-27T06:57:45.944Z,54.83
2022-11-27T06:59:08.188Z,49.10
2022-11-27T07:00:30.230Z,38.40
2022-11-27T07:01:52.400Z,45.27
2022-11-27T07:03:14.526Z,47.87
2022-11-27T07:04:36.934Z,45.70
2022-11-27T07:06:04.123Z,40.47
2022-11-27T07:07:26.202Z,42.17
2022-11-27T07:08:48.990Z,41.50
2022-11-27T07:10:12.318Z,51.20
2022-11-27T07:11:34.652Z,43.13
2022-11-27T07:12:56.759Z,40.60
2022-11-27T07:14:18.817Z,38.20
2022-11-27T07:15:40.875Z,40.83
2022-11-27T07:17:03.018Z,49.00
2022-11-27T07:18:25.061Z,40.63
2022-11-27T07:19:47.697Z,40.00
2022-11-27T07:21:10.222Z,39.20
2022-11-27T07:22:32.964Z,43.33
2022-11-27T07:23:56.601Z,41.27
2022-11-27T07:25:18.735Z,39.67
2022-11-27T07:26:40.801Z,48.77
2022-11-27T07:28:02.913Z,48.73
2022-11-27T07:29:24.971Z,40.60
2022-11-27T07:30:57.979Z,47.40
2022-11-27T07:32:20.001Z,45.37
2022-11-27T07:33:42.038Z,38.50
2022-11-27T07:35:04.276Z,45.40
2022-11-27T07:36:29.187Z,38.67
2022-11-27T07:37:51.210Z,39.10
2022-11-27T07:39:13.257Z,38.10
2022-11-27T07:40:35.302Z,45.67
2022-11-27T07:42:00.024Z,41.87
2022-11-27T07:43:24.969Z,40.07
2022-11-27T07:44:47.012Z,39.80
2022-11-27T07:46:15.118Z,45.03
2022-11-27T07:47:38.334Z,52.67
2022-11-27T07:49:00.648Z,32.03
2022-11-27T07:50:22.937Z,41.17
2022-11-27T07:51:44.969Z,45.77
2022-11-27T07:53:07.717Z,42.93
2022-11-27T07:54:29.765Z,36.67
2022-11-27T07:55:52.060Z,41.27
2022-11-27T07:57:14.223Z,41.23
2022-11-27T07:58:36.687Z,45.07
2022-11-27T07:59:58.738Z,38.63
2022-11-27T08:01:21.676Z,35.43
2022-11-27T08:02:43.840Z,46.70
2022-11-27T08:04:05.878Z,36.77
2022-11-27T08:05:28.237Z,39.93
2022-11-27T08:06:50.319Z,33.90
2022-11-27T08:08:12.320Z,43.33
2022-11-27T08:09:34.427Z,38.93
2022-11-27T08:10:56.653Z,33.53
2022-11-27T08:12:18.679Z,31.57
2022-11-27T08:13:40.772Z,40.07
2022-11-27T08:15:04.579Z,32.10
2022-11-27T08:16:27.573Z,37.53
2022-11-27T08:17:49.789Z,37.57
2022-11-27T08:19:12.049Z,34.37
2022-11-27T08:20:34.338Z,35.07
2022-11-27T08:21:57.457Z,34.50
2022-11-27T08:23:19.515Z,27.97
2022-11-27T08:24:42.588Z,42.57
2022-11-27T08:26:09.014Z,39.70
2022-11-27T08:27:33.265Z,45.30
2022-11-27T08:28:56.677Z,40.17
2022-11-27T08:30:18.905Z,31.00
2022-11-27T08:31:41.102Z,31.27
2022-11-27T08:33:03.219Z,41.17
2022-11-27T08:34:26.861Z,38.00
2022-11-27T08:35:49.713Z,28.20
2022-11-27T08:37:11.962Z,33.30
2022-11-27T08:38:34.017Z,38.63
2022-11-27T08:39:56.066Z,29.50
2022-11-27T08:41:18.169Z,46.77
2022-11-27T08:42:40.183Z,34.90
2022-11-27T08:44:06.693Z,35.63
2022-11-27T08:45:32.882Z,33.43
2022-11-27T08:46:54.976Z,32.73
2022-11-27T08:48:17.514Z,33.93
2022-11-27T08:49:43.625Z,29.13
2022-11-27T08:51:10.839Z,32.90
2022-11-27T08:52:32.893Z,38.77
2022-11-27T08:53:54.989Z,28.27
2022-11-27T08:55:17.115Z,24.40
2022-11-27T08:56:39.202Z,38.83
2022-11-27T08:58:01.254Z,25.53
2022-11-27T08:59:23.412Z,25.30
2022-11-27T09:00:45.573Z,27.60
2022-11-27T09:02:13.707Z,31.80
2022-11-27T09:03:35.854Z,41.80
2022-11-27T09:04:57.921Z,30.63
2022-11-27T09:06:22.616Z,43.70
2022-11-27T09:07:44.735Z,26.53
2022-11-27T09:09:06.912Z,32.53
2022-11-27T09:10:29.003Z,34.87
2022-11-27T09:11:51.081Z,32.40
2022-11-27T09:13:13.188Z,30.10
2022-11-27T09:14:35.243Z,31.13
2022-11-27T09:15:58.180Z,30.23
2022-11-27T09:17:20.241Z,25.43
2022-11-27T09:18:45.304Z,34.90
2022-11-27T09:20:08.429Z,26.83
2022-11-27T09:21:31.578Z,26.23
2022-11-27T09:22:53.597Z,27.27
2022-11-27T09:24:15.902Z,29.70
2022-11-27T09:25:39.486Z,21.73
2022-11-27T09:27:01.879Z,31.53
2022-11-27T09:28:29.848Z,34.03
2022-11-27T09:29:53.698Z,21.57
2022-11-27T09:31:16.641Z,31.13
2022-11-27T09:32:38.690Z,21.70
2022-11-27T09:34:00.928Z,24.20
2022-11-27T09:35:23.043Z,26.50
2022-11-27T09:36:45.315Z,29.80
2022-11-27T09:38:07.471Z,24.00
2022-11-27T09:39:33.205Z,33.77
2022-11-27T09:41:03.237Z,32.10
2022-11-27T09:42:47.496Z,25.37
2022-11-27T09:44:16.965Z,23.93
2022-11-27T09:45:50.773Z,30.77
2022-11-27T09:47:16.327Z,26.70
2022-11-27T09:48:41.560Z,31.03
2022-11-27T09:50:17.757Z,40.67
2022-11-27T09:51:53.726Z,26.83
2022-11-27T09:53:31.420Z,31.43
2022-11-27T09:55:13.471Z,28.17
2022-11-27T09:56:36.812Z,24.53
2022-11-27T09:58:07.909Z,25.57
2022-11-27T09:59:50.599Z,28.70
2022-11-27T10:01:28.593Z,25.67
2022-11-27T10:02:54.794Z,23.47
2022-11-27T10:04:19.686Z,29.23
2022-11-27T10:06:23.999Z,29.07
2022-11-27T10:08:07.488Z,30.50
2022-11-27T10:09:52.690Z,25.07
2022-11-27T10:11:29.807Z,27.00
2022-11-27T10:13:26.457Z,23.43
2022-11-27T10:15:14.546Z,24.23
2022-11-27T10:17:16.793Z,30.33
2022-11-27T10:19:05.365Z,22.70
2022-11-27T10:20:37.556Z,21.97
2022-11-27T10:21:59.603Z,30.47
2022-11-27T10:23:36.563Z,24.57
2022-11-27T10:25:01.619Z,25.97
2022-11-27T10:26:38.936Z,23.23
2022-11-27T10:28:10.476Z,28.57
2022-11-27T10:29:45.710Z,25.00
2022-11-27T10:31:22.487Z,23.10
2022-11-27T10:32:55.146Z,23.43
2022-11-27T10:34:24.397Z,27.20
2022-11-27T10:35:49.171Z,28.50
2022-11-27T10:37:21.865Z,24.13
2022-11-27T10:38:44.510Z,27.10
2022-11-27T10:40:11.806Z,30.97
2022-11-27T10:41:49.142Z,30.70
2022-11-27T10:43:17.894Z,31.70
2022-11-27T10:44:44.624Z,22.57
2022-11-27T10:46:27.146Z,26.63
2022-11-27T10:47:49.293Z,26.30
2022-11-27T10:49:11.371Z,27.77
2022-11-27T10:50:33.866Z,26.07
2022-11-27T10:51:55.964Z,27.60
2022-11-27T10:53:20.814Z,32.40
2022-11-27T10:54:46.088Z,28.70
2022-11-27T10:56:15.548Z,24.20
2022-11-27T10:57:47.316Z,27.87
2022-11-27T10:59:30.059Z,23.50
2022-11-27T11:01:09.682Z,37.57
2022-11-27T11:02:38.612Z,28.10
2022-11-27T11:04:31.236Z,22.47
2022-11-27T11:06:20.540Z,21.80
2022-11-27T11:07:43.222Z,32.80
2022-11-27T11:09:13.481Z,23.00
2022-11-27T11:10:38.587Z,24.67
2022-11-27T11:12:07.282Z,28.13
2022-11-27T11:13:32.057Z,34.60
2022-11-27T11:14:59.558Z,26.80
2022-11-27T11:16:27.335Z,22.80
2022-11-27T11:17:51.544Z,25.27
2022-11-27T11:19:25.717Z,27.40
2022-11-27T11:20:50.734Z,23.80
2022-11-27T11:22:15.457Z,22.90
2022-11-27T11:23:40.736Z,22.50
2022-11-27T11:25:02.942Z,18.23
2022-11-27T11:26:38.911Z,20.30
2022-11-27T11:28:00.977Z,23.47
2022-11-27T11:29:30.956Z,20.63
2022-11-27T11:30:57.316Z,26.17
2022-11-27T11:32:35.239Z,20.23
2022-11-27T11:34:03.732Z,21.40
2022-11-27T11:35:36.062Z,22.37
2022-11-27T11:36:59.131Z,20.33
2022-11-27T11:38:32.354Z,24.93
2022-11-27T11:39:58.940Z,20.13
2022-11-27T11:41:21.672Z,19.10
2022-11-27T11:43:06.563Z,25.23
2022-11-27T11:44:36.733Z,26.67
2022-11-27T11:46:28.447Z,23.33
2022-11-27T11:47:56.765Z,18.80
2022-11-27T11:49:24.564Z,22.60
2022-11-27T11:50:54.444Z,24.43
2022-11-27T11:52:31.574Z,21.70
2022-11-27T11:54:09.733Z,20.90
2022-11-27T11:55:39.729Z,19.20
2022-11-27T11:57:10.807Z,23.23
2022-11-27T11:58:45.001Z,23.33
2022-11-27T12:00:14.549Z,16.97
2022-11-27T12:01:54.000Z,19.83
2022-11-27T12:03:19.250Z,23.20
2022-11-27T12:04:50.496Z,21.27
2022-11-27T12:06:28.793Z,14.33
2022-11-27T12:07:53.660Z,27.90
2022-11-27T12:09:38.839Z,20.93
2022-11-27T12:11:18.294Z,18.10
2022-11-27T12:12:55.650Z,19.30
2022-11-27T12:14:29.602Z,20.03
2022-11-27T12:15:57.423Z,18.77
2022-11-27T12:17:19.393Z,19.60
2022-11-27T12:19:13.988Z,19.03
2022-11-27T12:21:21.442Z,23.30
2022-11-27T12:23:06.117Z,19.27
2022-11-27T12:24:46.281Z,21.43
2022-11-27T12:26:20.189Z,24.27
2022-11-27T12:28:08.251Z,14.40
2022-11-27T12:29:55.796Z,17.40
2022-11-27T12:31:56.217Z,13.40
2022-11-27T12:33:27.343Z,18.40
2022-11-27T12:35:01.328Z,14.37
2022-11-27T12:37:00.581Z,13.47
2022-11-27T12:39:27.246Z,17.47
2022-11-27T12:41:26.206Z,20.37
2022-11-27T12:43:24.478Z,16.30
2022-11-27T12:45:00.303Z,15.63
2022-11-27T12:46:22.405Z,17.00
2022-11-27T12:47:56.487Z,15.27
2022-11-27T12:49:27.811Z,16.70
2022-11-27T12:51:26.742Z,13.57
2022-11-27T12:53:11.657Z,21.43
2022-11-27T12:55:01.883Z,15.43
2022-11-27T12:56:42.104Z,21.23
2022-11-27T12:58:09.180Z,15.30
2022-11-27T12:59:33.810Z,12.20
2022-11-27T13:01:04.987Z,15.63
2022-11-27T13:02:34.985Z,19.73
2022-11-27T13:04:10.177Z,15.47
2022-11-27T13:05:46.354Z,15.97
2022-11-27T13:07:20.049Z,22.53
2022-11-27T13:09:10.154Z,20.03
2022-11-27T13:11:13.688Z,15.90
2022-11-27T13:13:01.781Z,16.10
2022-11-27T13:14:26.870Z,13.10
2022-11-27T13:15:57.687Z,14.20
2022-11-27T13:17:20.806Z,13.77
2022-11-27T13:18:58.908Z,20.40
2022-11-27T13:20:28.590Z,15.53
2022-11-27T13:21:53.113Z,22.10
2022-11-27T13:23:15.689Z,22.37
2022-11-27T13:24:38.158Z,12.00
2022-11-27T13:26:11.771Z,19.07
2022-11-27T13:27:37.003Z,16.60
2022-11-27T13:29:06.320Z,13.43
2022-11-27T13:30:32.905Z,14.00
2022-11-27T13:31:58.969Z,16.90
2022-11-27T13:33:34.896Z,12.03
2022-11-27T13:35:02.965Z,16.40
2022-11-27T13:36:38.707Z,16.00
2022-11-27T13:38:09.050Z,18.63
2022-11-27T13:39:42.638Z,13.27
2022-11-27T13:41:06.269Z,12.17
2022-11-27T13:42:29.256Z,16.63
2022-11-27T13:43:52.038Z,14.03
2022-11-27T13:45:24.906Z,12.57
2022-11-27T13:46:54.718Z,13.90
2022-11-27T13:48:31.075Z,15.37
2022-11-27T13:50:03.850Z,13.57
2022-11-27T13:51:37.474Z,17.27
2022-11-27T13:53:05.712Z,15.07
2022-11-27T13:54:29.275Z,16.73
2022-11-27T13:55:56.668Z,13.83
2022-11-27T13:57:21.144Z,23.43
2022-11-27T13:58:43.538Z,13.10
2022-11-27T14:00:09.160Z,14.30
2022-11-27T14:01:31.353Z,17.40
2022-11-27T14:02:53.580Z,17.20
2022-11-27T14:04:15.658Z,13.90
2022-11-27T14:05:41.835Z,22.77
2022-11-27T14:07:07.066Z,15.20
2022-11-27T14:08:33.632Z,18.37
2022-11-27T14:10:05.689Z,20.10
2022-11-27T14:11:44.574Z,16.40
2022-11-27T14:13:09.975Z,15.93
2022-11-27T14:14:32.114Z,14.23
2022-11-27T14:16:02.193Z,13.03
2022-11-27T14:17:33.046Z,13.90
2022-11-27T14:18:58.924Z,18.40
2022-11-27T14:20:26.763Z,20.33
2022-11-27T14:21:49.295Z,18.00
2022-11-27T14:23:13.111Z,16.40
2022-11-27T14:24:40.730Z,17.40
2022-11-27T14:26:15.475Z,23.60
2022-11-27T14:27:37.789Z,22.00
2022-11-27T14:29:00.663Z,23.00
2022-11-27T14:30:39.006Z,23.67
2022-11-27T14:32:02.529Z,21.83
2022-11-27T14:33:27.015Z,18.00
2022-11-27T14:34:49.267Z,21.90
2022-11-27T14:36:23.590Z,23.43
2022-11-27T14:37:45.645Z,21.43
2022-11-27T14:39:07.795Z,23.23
2022-11-27T14:40:29.884Z,25.50
2022-11-27T14:42:22.263Z,30.87
2022-11-27T14:43:47.354Z,20.47
2022-11-27T14:45:21.608Z,32.23
2022-11-27T14:46:44.419Z,31.00
2022-11-27T14:48:06.811Z,26.93
2022-11-27T14:49:30.388Z,29.37
2022-11-27T14:50:54.692Z,29.80
2022-11-27T14:52:18.251Z,28.33
2022-11-27T14:53:41.017Z,26.60
2022-11-27T14:55:03.544Z,27.30
2022-11-27T14:56:31.563Z,24.30
2022-11-27T14:57:54.513Z,28.67
2022-11-27T14:59:19.433Z,23.50
2022-11-27T15:00:56.853Z,27.23
2022-11-27T15:02:23.352Z,30.27
2022-11-27T15:03:55.997Z,24.17
2022-11-27T15:05:26.953Z,26.50
2022-11-27T15:06:48.996Z,27.73
2022-11-27T15:08:11.177Z,25.67
2022-11-27T15:09:35.707Z,27.67
2022-11-27T15:10:59.737Z,29.20
2022-11-27T15:12:34.342Z,29.67
2022-11-27T15:14:02.417Z,22.80
2022-11-27T15:15:27.820Z,34.30
2022-11-27T15:16:52.496Z,24.67
2022-11-27T15:18:20.834Z,25.00
2022-11-27T15:19:43.886Z,24.77
2022-11-27T15:21:12.486Z,25.47
2022-11-27T15:22:36.752Z,31.57
2022-11-27T15:23:59.334Z,29.17
2022-11-27T15:25:40.703Z,30.20
2022-11-27T15:27:14.818Z,29.23
2022-11-27T15:28:40.406Z,30.37
2022-11-27T15:30:12.130Z,25.00
2022-11-27T15:31:38.614Z,21.60
2022-11-27T15:33:01.183Z,23.17
2022-11-27T15:34:24.310Z,24.33
2022-11-27T15:35:51.198Z,28.10
2022-11-27T15:37:27.650Z,29.70
2022-11-27T15:38:52.654Z,23.10
2022-11-27T15:40:29.873Z,29.00
2022-11-27T15:41:56.213Z,28.73
2022-11-27T15:43:18.282Z,26.80
2022-11-27T15:44:40.883Z,23.70
2022-11-27T15:46:06.163Z,21.90
2022-11-27T15:47:36.097Z,24.37
2022-11-27T15:48:58.411Z,22.93
2022-11-27T15:50:20.489Z,31.73
2022-11-27T15:51:43.222Z,23.10
2022-11-27T15:53:05.318Z,20.13
2022-11-27T15:54:27.447Z,36.70
2022-11-27T15:55:49.603Z,22.80
2022-11-27T15:57:12.397Z,21.50
2022-11-27T15:58:34.486Z,25.07
2022-11-27T15:59:56.603Z,22.40
2022-11-27T16:01:18.789Z,21.30
2022-11-27T16:02:41.024Z,24.80
2022-11-27T16:04:03.432Z,24.80
2022-11-27T16:05:25.437Z,25.50
2022-11-27T16:06:47.511Z,22.87
2022-11-27T16:08:12.374Z,26.83
2022-11-27T16:09:36.061Z,25.00
2022-11-27T16:11:03.945Z,27.90
2022-11-27T16:12:26.072Z,29.50
2022-11-27T16:13:48.293Z,21.70
2022-11-27T16:15:10.737Z,20.00
2022-11-27T16:16:32.964Z,20.73
2022-11-27T16:17:55.075Z,26.63
2022-11-27T16:19:17.219Z,18.77
2022-11-27T16:20:39.259Z,24.37
2022-11-27T16:22:01.290Z,23.20
2022-11-27T16:23:23.377Z,26.90
2022-11-27T16:24:45.421Z,19.50
2022-11-27T16:26:10.469Z,25.13
2022-11-27T16:27:32.549Z,22.30
2022-11-27T16:28:55.270Z,22.53
2022-11-27T16:30:19.971Z,21.93
2022-11-27T16:31:42.151Z,21.73
2022-11-27T16:33:04.450Z,24.20
2022-11-27T16:34:26.584Z,23.13
2022-11-27T16:35:48.646Z,23.73
2022-11-27T16:37:15.570Z,21.20
2022-11-27T16:38:41.116Z,23.87
2022-11-27T16:40:03.729Z,20.83
2022-11-27T16:42:39.049Z,19.53
2022-11-27T16:44:01.204Z,22.70
2022-11-27T16:45:23.319Z,26.27
2022-11-27T16:46:45.537Z,25.03
2022-11-27T16:48:07.643Z,19.60
2022-11-27T16:49:29.821Z,19.17
2022-11-27T16:50:51.884Z,28.47
2022-11-27T16:52:14.218Z,23.63
2022-11-27T16:53:41.013Z,21.90
2022-11-27T16:55:03.250Z,24.53
2022-11-27T16:56:26.992Z,20.33
2022-11-27T16:57:49.185Z,21.87
2022-11-27T16:59:13.567Z,22.87
2022-11-27T17:00:35.927Z,16.50
2022-11-27T17:01:58.053Z,23.80
2022-11-27T17:03:20.449Z,24.17
2022-11-27T17:04:43.011Z,22.37
2022-11-27T17:06:23.176Z,20.67
2022-11-27T17:07:45.442Z,25.53
2022-11-27T17:09:08.669Z,23.57
2022-11-27T17:10:30.939Z,20.13
2022-11-27T17:11:52.981Z,25.63
2022-11-27T17:13:15.043Z,23.47
2022-11-27T17:14:37.199Z,23.23
2022-11-27T17:16:01.525Z,22.53
2022-11-27T17:17:23.666Z,27.77
2022-11-27T17:18:46.199Z,20.13
2022-11-27T17:20:08.711Z,23.20
2022-11-27T17:21:32.985Z,22.83
2022-11-27T17:22:55.137Z,22.00
2022-11-27T17:24:17.741Z,19.50
2022-11-27T17:25:39.834Z,24.63
2022-11-27T17:27:02.722Z,19.70
2022-11-27T17:28:24.776Z,21.10
2022-11-27T17:29:46.825Z,19.10
2022-11-27T17:31:15.134Z,18.83
2022-11-27T17:32:37.239Z,25.30
2022-11-27T17:33:59.532Z,24.67
2022-11-27T17:35:21.590Z,22.17
2022-11-27T17:36:45.060Z,24.73
2022-11-27T17:38:07.150Z,25.93
2022-11-27T17:39:29.198Z,25.27
2022-11-27T17:40:51.261Z,21.97
2022-11-27T17:42:16.136Z,21.07
2022-11-27T17:43:40.924Z,20.00
2022-11-27T17:45:03.297Z,25.77
2022-11-27T17:46:27.510Z,21.93
2022-11-27T17:47:49.570Z,27.40
2022-11-27T17:49:11.701Z,23.50
2022-11-27T17:50:33.827Z,20.07
2022-11-27T17:51:55.918Z,22.73
2022-11-27T17:53:18.553Z,24.97
2022-11-27T17:54:40.894Z,19.50
2022-11-27T17:56:14.224Z,28.23
2022-11-27T17:57:36.343Z,26.77
2022-11-27T17:58:59.839Z,21.97
2022-11-27T18:00:21.949Z,21.17
2022-11-27T18:01:43.993Z,23.17
2022-11-27T18:03:07.575Z,20.83
2022-11-27T18:04:31.122Z,17.27
2022-11-27T18:05:53.423Z,21.60
2022-11-27T18:07:15.594Z,21.93
2022-11-27T18:08:38.091Z,24.90
2022-11-27T18:10:00.191Z,21.67
2022-11-27T18:11:25.578Z,24.70
2022-11-27T18:12:47.696Z,21.30
2022-11-27T18:14:13.452Z,18.97
2022-11-27T18:15:35.673Z,21.50
2022-11-27T18:17:04.076Z,18.03
2022-11-27T18:18:26.364Z,21.63
2022-11-27T18:19:50.875Z,18.17
2022-11-27T18:21:18.308Z,22.13
2022-11-27T18:22:40.778Z,21.00
2022-11-27T18:25:48.940Z,18.20
2022-11-27T18:27:12.218Z,26.27
2022-11-27T18:28:34.514Z,25.20
2022-11-27T18:29:56.609Z,19.80
2022-11-27T18:31:19.972Z,16.80
2022-11-27T18:32:42.123Z,26.40
2022-11-27T18:34:04.309Z,20.37
2022-11-27T18:35:26.486Z,20.10
2022-11-27T18:36:48.561Z,15.60
2022-11-27T18:38:10.625Z,18.13